Flight Track Log - Related Links

Times and Time Zones

All times are in EDT time to prevent confusion due to time zone crossing. See the CTL13 flight status page for this flight to view local times or setup timezone preferences in your user account.

Time Position Orientation Groundspeed Altitude Reporting Facility
EDT Latitude Longitude Course Direction KTS MPH feet Rate Location/Type
Fri 20:50:00 39.8788 -86.3452 321° Northwest  Level FlightAware
Fri 20:54:46 40.2089 -86.4903 320° Northwest 159 183 4,000  Level Indianapolis Center
Fri 20:55:09 40.2181 -86.5094 302° West 162 186 4,000  Level Chicago Center
Fri 20:55:58 40.2425 -86.5469 311° West 163 188 4,000  Level Chicago Center
Fri 20:57:00 40.0940 -86.5772 323° Northwest  Level FlightAware
Fri 20:57:00 40.2711 -86.5953 308° West 165 190 4,000  Level Chicago Center
Fri 20:58:00 40.1279 -86.6112 323° Northwest  Level FlightAware
Fri 20:58:11 40.3047 -86.6508 308° West 165 190 4,000  Level Chicago Center
Fri 20:59:00 40.1618 -86.6451 323° Northwest  Level FlightAware
Fri 20:59:12 40.3344 -86.6964 311° West 166 191 4,000  Level Chicago Center
Fri 21:00:00 40.1953 -86.6796 320° Northwest  Level FlightAware
Fri 21:00:06 40.3581 -86.7358 308° West 163 188 4,000  Level Chicago Center
Fri 21:01:07 40.3867 -86.7847 308° West 166 191 4,000  Level Chicago Center
Fri 21:02:09 40.4200 -86.8417 308° West 166 191 4,000  Level Chicago Center
Fri 21:03:11 40.4492 -86.8928 307° West 171 197 4,000  Level Chicago Center
Fri 21:04:13 40.4789 -86.9375 311° West 165 190 4,000  Level Chicago Center
Fri 21:05:15 40.5089 -86.9892 307° West 166 191 4,000  Level Chicago Center
Fri 21:06:17 40.5361 -87.0325 310° West 164 189 4,000  Level Chicago Center
Fri 21:07:16 40.5681 -87.0806 311° West 163 188 4,000  Level Chicago Center
Fri 21:08:21 40.6139 -87.1028 340° North 166 191 4,000  Level Chicago Center
Fri 21:09:23 40.6572 -87.1222 341° North 166 191 4,000  Level Chicago Center
Fri 21:10:25 40.7000 -87.1439 339° North 165 190 4,000  Level Chicago Center
Fri 21:11:27 40.7414 -87.1669 337° Northwest 165 190 4,000  Level Chicago Center
Fri 21:12:29 40.7833 -87.1889 338° Northwest 164 189 4,000  Level Chicago Center
Fri 21:13:30 40.8317 -87.2147 338° Northwest 160 184 4,000  Level Chicago Center
Fri 21:14:32 40.8725 -87.2361 338° Northwest 159 183 4,000  Level Chicago Center
Fri 21:15:34 40.9144 -87.2578 339° North 160 184 4,000  Level Chicago Center
Fri 21:16:36 40.9550 -87.2794 338° Northwest 160 184 4,000  Level Chicago Center
Fri 21:17:38 40.9953 -87.3019 337° Northwest 158 182 4,000  Level Chicago Center
Fri 21:18:40 41.0356 -87.3228 339° North 158 182 4,000  Level Chicago Center
Fri 21:19:42 41.0856 -87.3481 339° North 159 183 4,000  Level Chicago Center
Fri 21:20:44 41.1208 -87.3822 324° Northwest 160 184 4,000  Level Chicago Center
Fri 21:21:46 41.1542 -87.4217 318° Northwest 160 184 4,000  Level Chicago Center
Fri 21:22:48 41.1894 -87.4556 324° Northwest 159 183 4,000  Level Chicago Center
Fri 21:23:49 41.2242 -87.4917 322° Northwest 159 183 4,000  Level Chicago Center
Fri 21:24:51 41.2661 -87.5353 322° Northwest 160 184 4,000  Level Chicago Center
Fri 21:25:53 41.3011 -87.5692 324° Northwest 158 182 4,000  Level Chicago Center
Fri 21:26:55 41.3364 -87.6072 321° Northwest 161 185 4,000  Level Chicago Center
Fri 21:27:57 41.3714 -87.6436 322° Northwest 161 185 4,000  Level Chicago Center
Fri 21:28:58 41.4078 -87.6811 322° Northwest 164 189 4,000  Level Chicago Center
Fri 21:30:00 41.4442 -87.7167 324° Northwest 163 188 4,000 -194 Level Chicago Center
Fri 21:31:02 41.4881 -87.7628 322° Northwest 167 192 3,600 -387 Descending Chicago Center
Fri 21:32:04 41.5267 -87.8053 321° Northwest 174 200 3,200 -293 Descending Chicago Center
Fri 21:33:05 41.5558 -87.8597 306° West 179 206 3,000 -244 Descending Chicago Center
Fri 21:34:07 41.5842 -87.9111 306° West 176 203 2,700 -290 Descending Chicago Center
Fri 21:35:09 41.6206 -87.9469 324° Northwest 179 206 2,400 -98 Descending Chicago Center
Fri 21:36:10 41.6614 -87.9067 36° Northeast 160 184 2,500 -49 Climbing Chicago Center
Fri 21:37:12 41.6933 -87.8700 41° Northeast 156 180 2,300 -146 Descending Chicago Center
Fri 21:37:32 41.7000 -87.8500 66° East 144 166 2,300 -150 Level Chicago TRACON
Fri 21:38:32 41.7333 -87.8167 37° Northeast 121 139 2,100 -400 Descending Chicago TRACON
Fri 21:39:32 41.7500 -87.8000 37° Northeast 109 125 1,500 -600 Descending Chicago TRACON
Fri 21:40:32 41.7667 -87.7667 56° Northeast 102 117 900 -600 Descending Chicago TRACON

Login

Don't have an account? Register now (free) for customized features, flight alerts, and more!